Time;durP1;ratioP1;P1;durP2;ratioP2;P2;SDS_P1;SDS_P2;PMS_P1;PMS_P2;Temp;Humidity;BMP_temperature;BMP_pressure;BME280_temperature;BME280_humidity;BME280_pressure;Samples;Min_cycle;Max_cycle;Signal;HPM_P1;HPM_P2
2021/12/18 00:01:05;;;;;;;;;;;;;;;9.53;73.52;103984.28;5054903;28;19978;-60
2021/12/18 00:03:30;;;;;;;;;;;;;;;9.55;73.59;103981.34;5053780;28;20372;-60
2021/12/18 00:05:56;;;;;;;;;;;;;;;9.54;73.43;103980.44;5053396;28;19924;-60
2021/12/18 00:08:21;;;;;;;;;;;;;;;9.55;73.67;103979.44;5054098;28;19921;-60
2021/12/18 00:10:46;;;;;;;;;;;;;;;9.55;73.79;103968.34;5047154;28;20400;-61
2021/12/18 00:13:12;;;;;;;;;;;;;;;9.54;73.75;103976.81;5049811;28;20019;-61
2021/12/18 00:15:37;;;;;;;;;;;;;;;9.55;73.86;103973.91;5051477;28;19929;-61
2021/12/18 00:18:02;;;;;;;;;;;;;;;9.54;73.55;103968.50;5055150;28;20322;-59
2021/12/18 00:20:28;;;;;;;;;;;;;;;9.52;73.40;103977.00;5052508;28;20295;-59
2021/12/18 00:22:54;;;;;;;;;;;;;;;9.53;73.89;103975.09;5055082;28;19923;-60
2021/12/18 00:25:19;;;;;;;;;;;;;;;9.51;74.01;103966.94;5053565;28;19967;-60
2021/12/18 00:27:44;;;;;;;;;;;;;;;9.49;73.95;103963.47;5047080;28;19928;-61
2021/12/18 00:30:10;;;;;;;;;;;;;;;9.50;73.78;103964.31;5054773;28;19928;-61
2021/12/18 00:32:35;;;;;;;;;;;;;;;9.49;74.11;103960.69;5054746;28;19956;-60
2021/12/18 00:35:00;;;;;;;;;;;;;;;9.51;73.69;103960.50;5051177;28;19928;-61
2021/12/18 00:37:25;;;;;;;;;;;;;;;9.49;73.93;103957.91;5054819;28;19917;-61
2021/12/18 00:39:56;;;;;;;;;;;;;;;9.50;73.86;103959.66;5053925;28;19929;-60
2021/12/18 00:42:37;;;;;;;;;;;;;;;9.49;73.65;103948.75;5053534;28;20281;-60
2021/12/18 00:45:03;;;;;;;;;;;;;;;9.48;73.78;103961.75;5049151;28;20011;-61
2021/12/18 00:47:29;;;;;;;;;;;;;;;9.48;73.95;103953.41;5053065;28;19998;-61
2021/12/18 00:49:54;;;;;;;;;;;;;;;9.50;73.76;103956.00;5053643;28;20388;-61
2021/12/18 00:52:19;;;;;;;;;;;;;;;9.50;74.10;103951.34;5054342;28;19924;-60
2021/12/18 00:54:44;;;;;;;;;;;;;;;9.49;73.62;103946.84;5053729;28;20365;-61
2021/12/18 00:57:09;;;;;;;;;;;;;;;9.51;73.67;103943.88;5053427;28;20023;-61
2021/12/18 00:59:35;;;;;;;;;;;;;;;9.50;73.71;103942.16;5053018;28;20292;-61
2021/12/18 01:02:00;;;;;;;;;;;;;;;9.48;74.00;103949.78;5046334;28;19924;-61
2021/12/18 01:04:26;;;;;;;;;;;;;;;9.49;73.61;103946.84;5040964;28;19986;-61
2021/12/18 01:06:51;;;;;;;;;;;;;;;9.48;73.91;103942.34;5054194;28;19920;-61
2021/12/18 01:09:21;;;;;;;;;;;;;;;9.47;74.05;103942.47;5053285;28;20364;-61
2021/12/18 01:11:48;;;;;;;;;;;;;;;9.46;73.75;103932.44;5054225;28;20428;-61
2021/12/18 01:14:36;;;;;;;;;;;;;;;9.45;73.49;103939.88;5052090;28;19920;-61
2021/12/18 01:24:51;;;;;;;;;;;;;;;9.46;73.68;103933.31;5049112;28;19964;-61
2021/12/18 01:27:16;;;;;;;;;;;;;;;9.43;73.60;103936.44;5052461;28;20392;-60
2021/12/18 01:29:42;;;;;;;;;;;;;;;9.44;73.85;103935.41;5052750;28;19967;-60
2021/12/18 01:32:07;;;;;;;;;;;;;;;9.46;74.02;103933.31;5053235;28;20012;-60
2021/12/18 01:34:32;;;;;;;;;;;;;;;9.45;73.61;103939.88;5048796;28;20016;-60
2021/12/18 01:36:57;;;;;;;;;;;;;;;9.47;73.78;103937.84;5051453;28;19924;-60
2021/12/18 01:39:23;;;;;;;;;;;;;;;9.46;73.76;103947.16;5053162;28;20319;-60
2021/12/18 01:42:32;;;;;;;;;;;;;;;9.45;73.74;103939.88;5053341;28;20381;-60
2021/12/18 01:44:59;;;;;;;;;;;;;;;9.45;73.90;103934.34;5051623;28;19921;-60
2021/12/18 01:52:42;;;;;;;;;;;;;;;9.46;74.04;103947.16;5033488;28;19944;-61
2021/12/18 01:55:09;;;;;;;;;;;;;;;9.46;73.67;103952.72;5042923;28;20428;-60
2021/12/18 01:57:34;;;;;;;;;;;;;;;9.47;73.78;103954.47;5052320;28;20007;-61
2021/12/18 02:00:00;;;;;;;;;;;;;;;9.46;73.43;103949.94;5030021;28;20008;-60
2021/12/18 02:02:25;;;;;;;;;;;;;;;9.46;73.82;103955.47;5032901;28;19967;-61
2021/12/18 02:04:50;;;;;;;;;;;;;;;9.46;73.43;103961.03;5035223;28;19921;-60
2021/12/18 02:07:16;;;;;;;;;;;;;;;9.46;73.40;103961.03;5040943;28;19948;-62
2021/12/18 02:10:03;;;;;;;;;;;;;;;9.46;73.77;103954.63;5033761;28;19960;-60
2021/12/18 02:12:57;;;;;;;;;;;;;;;9.46;73.61;103963.81;5021825;28;19921;-61
2021/12/18 02:20:46;;;;;;;;;;;;;;;9.44;73.82;103952.03;5052176;28;20425;-60
2021/12/18 02:23:12;;;;;;;;;;;;;;;9.45;73.62;103950.97;5024711;28;19936;-60
2021/12/18 02:25:37;;;;;;;;;;;;;;;9.45;73.88;103945.44;5027249;28;19981;-60
2021/12/18 02:28:06;;;;;;;;;;;;;;;9.45;73.53;103944.56;5030286;28;20006;-60
2021/12/18 02:30:32;;;;;;;;;;;;;;;9.46;73.25;103944.38;5037518;28;19956;-61
2021/12/18 02:32:57;;;;;;;;;;;;;;;9.46;73.58;103940.75;5037333;28;20004;-61
2021/12/18 02:35:30;;;;;;;;;;;;;;;9.46;73.37;103943.53;5042358;28;20008;-60
2021/12/18 02:38:09;;;;;;;;;;;;;;;9.46;73.89;103937.97;5035270;28;19925;-61
2021/12/18 02:43:18;;;;;;;;;;;;;;;9.46;73.68;103935.22;5037106;28;19979;-61
2021/12/18 02:45:43;;;;;;;;;;;;;;;9.45;74.02;103927.94;5029911;28;19979;-60
2021/12/18 02:48:08;;;;;;;;;;;;;;;9.45;73.57;103928.81;5035213;28;19928;-60
2021/12/18 02:50:37;;;;;;;;;;;;;;;9.47;73.81;103936.94;5037293;28;20058;-60
2021/12/18 02:53:04;;;;;;;;;;;;;;;9.45;73.30;103937.13;5032002;28;19929;-62
2021/12/18 02:55:29;;;;;;;;;;;;;;;9.44;73.71;103927.06;5039160;28;19927;-59
2021/12/18 02:57:54;;;;;;;;;;;;;;;9.43;73.67;103919.81;5048126;28;20003;-60
2021/12/18 03:00:21;;;;;;;;;;;;;;;9.43;73.60;103919.81;5054601;28;19927;-60
2021/12/18 03:02:46;;;;;;;;;;;;;;;9.43;73.70;103918.91;5050524;28;19920;-60
2021/12/18 03:05:18;;;;;;;;;;;;;;;9.40;73.72;103911.81;5055747;28;19917;-61
2021/12/18 03:07:44;;;;;;;;;;;;;;;9.40;73.32;103914.59;5054365;28;20273;-60
2021/12/18 03:25:57;;;;;;;;;;;;;;;9.38;73.89;103905.56;5054096;28;20429;-60
2021/12/18 03:28:22;;;;;;;;;;;;;;;9.39;73.96;103901.75;5054793;28;20379;-61
2021/12/18 03:30:47;;;;;;;;;;;;;;;9.38;73.39;103900.03;5054776;28;20019;-60
2021/12/18 03:33:13;;;;;;;;;;;;;;;9.37;74.05;103903.84;5055613;28;19920;-61
2021/12/18 03:35:38;;;;;;;;;;;;;;;9.36;73.93;103899.34;5053109;28;20019;-61
2021/12/18 03:38:04;;;;;;;;;;;;;;;9.36;73.88;103906.78;5054618;28;20254;-62
2021/12/18 03:40:29;;;;;;;;;;;;;;;9.33;73.65;103902.44;5054899;28;19921;-61
2021/12/18 03:42:54;;;;;;;;;;;;;;;9.33;73.81;103913.53;5054281;28;19921;-61
2021/12/18 03:45:20;;;;;;;;;;;;;;;9.34;73.47;103906.94;5054621;28;19939;-60
2021/12/18 03:47:45;;;;;;;;;;;;;;;9.32;73.92;103907.13;5054902;28;20288;-60
2021/12/18 03:50:10;;;;;;;;;;;;;;;9.30;73.82;103906.41;5053370;28;19921;-60
2021/12/18 03:52:36;;;;;;;;;;;;;;;9.30;74.10;103920.28;5053811;28;19920;-60
2021/12/18 03:55:02;;;;;;;;;;;;;;;9.29;74.03;103912.13;5047833;28;20008;-60
2021/12/18 03:57:27;;;;;;;;;;;;;;;9.29;73.65;103921.31;5054113;28;20318;-60
2021/12/18 03:59:52;;;;;;;;;;;;;;;9.30;73.72;103913.88;5054336;28;20058;-60
2021/12/18 04:02:18;;;;;;;;;;;;;;;9.30;73.91;103916.63;5055692;28;19921;-60
2021/12/18 04:04:43;;;;;;;;;;;;;;;9.29;73.74;103917.69;5053646;28;19944;-60
2021/12/18 04:07:08;;;;;;;;;;;;;;;9.31;73.76;103910.06;5055489;28;20015;-60
2021/12/18 04:09:34;;;;;;;;;;;;;;;9.31;73.77;103915.59;5053810;28;19939;-60
2021/12/18 04:11:59;;;;;;;;;;;;;;;9.30;73.91;103916.63;5052122;28;19917;-60
2021/12/18 04:14:24;;;;;;;;;;;;;;;9.29;73.79;103923.22;5051006;28;19921;-61
2021/12/18 04:16:49;;;;;;;;;;;;;;;9.30;74.04;103911.97;5050405;28;19921;-60
2021/12/18 04:19:15;;;;;;;;;;;;;;;9.29;73.93;103907.47;5054249;28;19920;-60
2021/12/18 04:21:40;;;;;;;;;;;;;;;9.27;73.87;103912.28;5054009;28;19921;-60
2021/12/18 04:24:05;;;;;;;;;;;;;;;9.26;73.80;103916.09;5054724;28;20035;-60
2021/12/18 04:26:31;;;;;;;;;;;;;;;9.27;74.20;103920.59;5053208;28;19917;-60
2021/12/18 04:28:57;;;;;;;;;;;;;;;9.28;74.12;103924.28;5054630;28;20288;-59
2021/12/18 04:31:22;;;;;;;;;;;;;;;9.29;73.81;103912.13;5051499;28;19927;-60
2021/12/18 04:33:47;;;;;;;;;;;;;;;9.28;74.18;103910.41;5053613;28;19928;-60
2021/12/18 04:36:12;;;;;;;;;;;;;;;9.31;73.56;103910.06;5054269;28;19948;-60
2021/12/18 04:38:37;;;;;;;;;;;;;;;9.29;74.21;103913.00;5053520;28;19973;-60
2021/12/18 04:41:04;;;;;;;;;;;;;;;9.30;73.83;103911.09;5048316;28;19971;-60
2021/12/18 04:43:29;;;;;;;;;;;;;;;9.30;73.89;103916.63;5046238;28;19967;-60
2021/12/18 04:45:55;;;;;;;;;;;;;;;9.30;73.86;103908.31;5035037;28;19964;-60
2021/12/18 04:48:20;;;;;;;;;;;;;;;9.29;73.64;103912.13;5040688;28;19920;-60
2021/12/18 04:50:45;;;;;;;;;;;;;;;9.27;73.66;103919.75;5052187;28;19928;-61
2021/12/18 04:53:10;;;;;;;;;;;;;;;9.26;73.75;103915.25;5054270;28;19920;-61
2021/12/18 04:55:35;;;;;;;;;;;;;;;9.26;74.12;103929.97;5049198;28;19917;-60
2021/12/18 04:58:01;;;;;;;;;;;;;;;9.27;73.75;103930.84;5050004;28;19932;-61
2021/12/18 05:00:35;;;;;;;;;;;;;;;9.25;74.00;103925.47;5049241;28;19928;-60
2021/12/18 05:03:04;;;;;;;;;;;;;;;9.25;73.90;103927.38;5043687;28;20273;-60
2021/12/18 05:05:30;;;;;;;;;;;;;;;9.24;73.96;103922.88;5034204;28;19921;-60
2021/12/18 05:07:55;;;;;;;;;;;;;;;9.25;73.77;103932.91;5047832;28;20272;-60
2021/12/18 05:10:20;;;;;;;;;;;;;;;9.25;73.90;103927.38;5051688;28;19929;-60
2021/12/18 05:12:45;;;;;;;;;;;;;;;9.26;73.90;103934.66;5054017;28;20275;-60
2021/12/18 05:15:10;;;;;;;;;;;;;;;9.26;73.98;103929.09;5050827;28;19921;-60
2021/12/18 05:17:36;;;;;;;;;;;;;;;9.23;74.14;103934.97;5050470;28;19961;-61
2021/12/18 05:20:01;;;;;;;;;;;;;;;9.23;74.09;103934.97;5049108;28;19920;-60
2021/12/18 05:22:26;;;;;;;;;;;;;;;9.23;74.42;103934.97;5052118;28;19920;-60
2021/12/18 05:24:51;;;;;;;;;;;;;;;9.23;73.79;103929.44;5053261;28;20383;-60
2021/12/18 05:27:16;;;;;;;;;;;;;;;9.24;73.78;103942.28;5053024;28;19920;-60
2021/12/18 05:29:41;;;;;;;;;;;;;;;9.23;74.26;103933.06;5052104;28;19928;-60
2021/12/18 05:32:07;;;;;;;;;;;;;;;9.25;74.14;103938.47;5053578;28;19963;-60
2021/12/18 05:34:36;;;;;;;;;;;;;;;9.25;74.03;103930.16;5053524;28;20383;-60
2021/12/18 05:37:15;;;;;;;;;;;;;;;9.24;73.90;103943.16;5037946;28;19967;-60
2021/12/18 05:39:41;;;;;;;;;;;;;;;9.25;74.30;103944.00;5053531;28;19921;-60
2021/12/18 05:42:06;;;;;;;;;;;;;;;9.24;74.26;103933.97;5051786;28;19921;-61
2021/12/18 05:44:31;;;;;;;;;;;;;;;9.22;74.25;103934.13;5053256;28;19916;-60
2021/12/18 05:46:56;;;;;;;;;;;;;;;9.22;74.33;103934.13;5050346;28;19974;-60
2021/12/18 05:49:22;;;;;;;;;;;;;;;9.23;74.28;103923.88;5053053;28;19999;-60
2021/12/18 05:51:47;;;;;;;;;;;;;;;9.22;73.96;103924.94;5045469;28;19927;-60
2021/12/18 05:54:14;;;;;;;;;;;;;;;9.20;74.04;103930.66;5051408;28;19966;-61
2021/12/18 05:56:39;;;;;;;;;;;;;;;9.18;74.07;103943.81;5047654;28;19931;-60
2021/12/18 05:59:04;;;;;;;;;;;;;;;9.16;73.91;103934.81;5042018;28;19921;-60
2021/12/18 06:01:30;;;;;;;;;;;;;;;9.17;74.16;103933.75;5048143;28;20019;-60
2021/12/18 06:03:55;;;;;;;;;;;;;;;9.16;74.08;103937.59;5051584;28;19925;-60
2021/12/18 06:06:21;;;;;;;;;;;;;;;9.17;74.26;103942.06;5051807;28;19989;-60
2021/12/18 06:08:47;;;;;;;;;;;;;;;9.17;74.64;103942.06;5052399;28;19928;-60
2021/12/18 06:11:15;;;;;;;;;;;;;;;9.18;74.12;103934.63;5051527;28;19925;-59
2021/12/18 06:13:41;;;;;;;;;;;;;;;9.18;74.48;103938.25;5053389;28;19956;-59
2021/12/18 06:16:07;;;;;;;;;;;;;;;9.21;75.42;103935.16;5045674;28;19921;-59
2021/12/18 06:18:36;;;;;;;;;;;;;;;9.30;74.51;103933.28;5044439;28;19927;-59
2021/12/18 06:21:02;;;;;;;;;;;;;;;9.31;74.49;103935.00;5050349;28;19921;-59
2021/12/18 06:23:27;;;;;;;;;;;;;;;9.29;74.05;103932.41;5052685;28;19957;-59
2021/12/18 06:25:52;;;;;;;;;;;;;;;9.28;74.14;103933.44;5050740;28;20403;-60
2021/12/18 06:28:17;;;;;;;;;;;;;;;9.26;74.46;103931.88;5053306;28;19917;-60
2021/12/18 06:30:43;;;;;;;;;;;;;;;9.26;74.39;103937.41;5051200;28;19936;-59
2021/12/18 06:33:08;;;;;;;;;;;;;;;9.24;74.29;103933.97;5051505;28;19925;-62
2021/12/18 06:35:33;;;;;;;;;;;;;;;9.24;74.03;103931.19;5049902;28;19924;-60
2021/12/18 06:37:58;;;;;;;;;;;;;;;9.22;74.18;103933.25;5052385;28;19924;-59
2021/12/18 06:40:23;;;;;;;;;;;;;;;9.21;74.19;103931.53;5050805;28;19924;-59
2021/12/18 06:42:49;;;;;;;;;;;;;;;9.20;74.58;103927.88;5052898;28;19944;-60
2021/12/18 06:45:14;;;;;;;;;;;;;;;9.19;74.43;103930.81;5051488;28;19963;-59
2021/12/18 06:47:40;;;;;;;;;;;;;;;9.18;74.31;103924.41;5047408;28;20285;-60
2021/12/18 06:50:05;;;;;;;;;;;;;;;9.19;74.27;103930.81;5052334;28;19920;-59
2021/12/18 06:52:31;;;;;;;;;;;;;;;9.17;74.49;103932.91;5044652;28;20432;-59
2021/12/18 06:54:56;;;;;;;;;;;;;;;9.15;74.64;103933.06;5047445;28;19920;-60
2021/12/18 06:57:22;;;;;;;;;;;;;;;9.15;74.64;103927.50;5043214;28;20288;-60
2021/12/18 06:59:48;;;;;;;;;;;;;;;9.14;74.71;103928.56;5053158;28;19923;-60
2021/12/18 07:02:13;;;;;;;;;;;;;;;9.15;74.64;103933.06;5016137;28;19972;-59
2021/12/18 07:04:38;;;;;;;;;;;;;;;9.14;74.70;103923.00;5032056;28;20435;-59
2021/12/18 07:07:03;;;;;;;;;;;;;;;9.13;74.56;103924.06;5024792;28;19921;-59
2021/12/18 07:09:28;;;;;;;;;;;;;;;9.14;74.73;103928.56;5015770;28;19929;-59
2021/12/18 07:11:54;;;;;;;;;;;;;;;9.16;74.85;103922.84;5013003;28;19928;-60
2021/12/18 07:14:19;;;;;;;;;;;;;;;9.15;74.60;103927.50;5024032;28;20016;-59
2021/12/18 07:16:44;;;;;;;;;;;;;;;9.14;74.54;103925.78;5026488;28;19921;-59
2021/12/18 07:19:09;;;;;;;;;;;;;;;9.14;74.62;103924.91;5035977;28;19975;-59
2021/12/18 07:21:34;;;;;;;;;;;;;;;9.13;74.49;103920.41;5018958;28;19921;-59
2021/12/18 07:24:00;;;;;;;;;;;;;;;9.11;74.29;103917.78;5021358;28;19925;-60
2021/12/18 07:26:25;;;;;;;;;;;;;;;9.13;74.31;103923.19;5017665;28;19968;-59
2021/12/18 07:28:50;;;;;;;;;;;;;;;9.16;74.84;103922.84;5023081;28;19921;-60
2021/12/18 07:31:15;;;;;;;;;;;;;;;9.15;74.37;103924.72;5028093;28;19929;-60
2021/12/18 07:33:43;;;;;;;;;;;;;;;9.14;74.35;103919.38;5034644;28;20011;-60
2021/12/18 07:36:08;;;;;;;;;;;;;;;9.13;74.22;103917.66;5019109;28;19921;-60
2021/12/18 07:38:34;;;;;;;;;;;;;;;9.12;74.57;103919.56;5038106;28;19932;-60
2021/12/18 07:40:59;;;;;;;;;;;;;;;9.13;74.33;103925.97;5020956;28;19925;-59
2021/12/18 07:43:24;;;;;;;;;;;;;;;9.11;74.63;103931.66;5015969;28;20288;-59
2021/12/18 07:45:49;;;;;;;;;;;;;;;9.13;74.50;103931.50;5022653;28;19975;-59
2021/12/18 07:48:15;;;;;;;;;;;;;;;9.14;74.87;103936.00;5033988;28;20167;-59
2021/12/18 07:50:40;;;;;;;;;;;;;;;9.14;74.90;103936.00;5034709;28;19953;-59
2021/12/18 07:53:05;;;;;;;;;;;;;;;9.13;74.73;103932.38;5028075;28;19922;-59
2021/12/18 07:55:30;;;;;;;;;;;;;;;9.13;74.62;103937.91;5021328;28;20365;-59
2021/12/18 07:57:56;;;;;;;;;;;;;;;9.14;75.17;103933.22;5019691;28;19925;-59
2021/12/18 08:00:21;;;;;;;;;;;;;;;9.15;75.18;103937.72;5041121;28;19921;-60
2021/12/18 08:02:47;;;;;;;;;;;;;;;9.14;74.76;103928.56;5051947;28;19924;-59
2021/12/18 08:05:14;;;;;;;;;;;;;;;9.14;74.48;103934.09;5054355;28;19917;-60
2021/12/18 08:07:39;;;;;;;;;;;;;;;9.14;74.94;103936.88;5054222;28;19921;-59
2021/12/18 08:10:05;;;;;;;;;;;;;;;9.13;74.61;103929.59;5038699;28;19928;-59
2021/12/18 08:12:30;;;;;;;;;;;;;;;9.15;74.87;103941.38;5036775;28;19921;-59
2021/12/18 08:14:56;;;;;;;;;;;;;;;9.14;74.69;103936.88;5047161;28;19917;-59
2021/12/18 08:17:22;;;;;;;;;;;;;;;9.12;75.03;103932.50;5049752;28;19920;-59
2021/12/18 08:19:47;;;;;;;;;;;;;;;9.12;74.64;103933.41;5049473;28;20031;-60
2021/12/18 08:22:12;;;;;;;;;;;;;;;9.12;75.16;103941.72;5053308;28;20277;-60
2021/12/18 08:24:37;;;;;;;;;;;;;;;9.11;74.87;103937.19;5051444;28;19924;-59
2021/12/18 08:27:03;;;;;;;;;;;;;;;9.13;75.21;103940.69;5051121;28;19925;-60
2021/12/18 08:29:28;;;;;;;;;;;;;;;9.13;75.14;103939.81;5050636;28;20389;-59
2021/12/18 08:31:53;;;;;;;;;;;;;;;9.12;74.74;103941.72;5054465;28;19924;-60
2021/12/18 08:34:21;;;;;;;;;;;;;;;9.13;74.54;103942.59;5051908;28;19921;-59
2021/12/18 08:36:47;;;;;;;;;;;;;;;9.11;74.79;103931.66;5053906;28;19928;-59
2021/12/18 08:39:12;;;;;;;;;;;;;;;9.11;74.87;103926.09;5047884;28;19913;-59
2021/12/18 08:41:38;;;;;;;;;;;;;;;9.12;75.09;103938.06;5051122;28;19928;-59
2021/12/18 08:44:04;;;;;;;;;;;;;;;9.11;75.09;103931.66;5045953;28;19971;-60
2021/12/18 08:46:29;;;;;;;;;;;;;;;9.11;74.92;103939.97;5049336;28;19925;-60
2021/12/18 08:48:54;;;;;;;;;;;;;;;9.10;75.22;103935.47;5047246;28;19923;-59
2021/12/18 08:51:19;;;;;;;;;;;;;;;9.10;74.94;103936.34;5052547;28;20293;-59
2021/12/18 08:53:44;;;;;;;;;;;;;;;9.13;75.20;103939.81;5052715;28;20356;-59
2021/12/18 08:56:09;;;;;;;;;;;;;;;9.14;74.92;103942.41;5052989;28;19921;-59
2021/12/18 08:58:35;;;;;;;;;;;;;;;9.15;75.11;103932.19;5051167;28;20388;-59
2021/12/18 09:01:00;;;;;;;;;;;;;;;9.14;75.05;103933.22;5051285;28;19925;-60
2021/12/18 09:03:28;;;;;;;;;;;;;;;9.15;75.30;103943.28;5045498;28;20008;-59
2021/12/18 09:05:54;;;;;;;;;;;;;;;9.16;74.95;103940.34;5053170;28;19917;-59
2021/12/18 09:08:19;;;;;;;;;;;;;;;9.16;74.83;103936.72;5049350;28;19928;-59
2021/12/18 09:10:45;;;;;;;;;;;;;;;9.16;75.19;103933.94;5052814;28;20284;-59
2021/12/18 09:13:10;;;;;;;;;;;;;;;9.17;74.86;103943.97;5051816;28;19973;-59
2021/12/18 09:15:35;;;;;;;;;;;;;;;9.19;75.26;103944.66;5051020;28;20280;-59
2021/12/18 09:18:00;;;;;;;;;;;;;;;9.20;75.10;103935.34;5043012;28;20322;-60
2021/12/18 09:20:26;;;;;;;;;;;;;;;9.21;74.91;103935.16;5045417;28;19921;-60
2021/12/18 09:22:51;;;;;;;;;;;;;;;9.21;74.62;103931.53;5047246;28;19920;-59
2021/12/18 09:25:16;;;;;;;;;;;;;;;9.21;74.73;103937.94;5052137;28;19927;-59
2021/12/18 09:27:42;;;;;;;;;;;;;;;9.22;74.59;103930.47;5046899;28;19921;-59
2021/12/18 09:30:09;;;;;;;;;;;;;;;9.22;74.83;103941.56;5050842;28;20257;-59
2021/12/18 09:32:34;;;;;;;;;;;;;;;9.23;75.04;103930.28;5052384;28;20311;-59
2021/12/18 09:34:59;;;;;;;;;;;;;;;9.23;74.79;103935.84;5052757;28;19917;-59
2021/12/18 09:37:24;;;;;;;;;;;;;;;9.22;74.68;103936.88;5051203;28;20359;-60
2021/12/18 09:39:49;;;;;;;;;;;;;;;9.23;74.79;103944.16;5052551;28;19917;-59
2021/12/18 09:42:15;;;;;;;;;;;;;;;9.21;74.63;103939.84;5050368;28;19921;-59
2021/12/18 09:44:40;;;;;;;;;;;;;;;9.20;74.63;103935.34;5051014;28;20003;-59
2021/12/18 09:47:05;;;;;;;;;;;;;;;9.21;75.18;103939.84;5052245;28;19920;-59
2021/12/18 09:49:31;;;;;;;;;;;;;;;9.20;74.72;103936.22;5049267;28;19990;-59
2021/12/18 09:51:56;;;;;;;;;;;;;;;9.21;75.25;103937.06;5052683;28;20330;-59
2021/12/18 09:54:23;;;;;;;;;;;;;;;9.21;74.92;103931.53;5051796;28;19924;-59
2021/12/18 09:56:48;;;;;;;;;;;;;;;9.22;74.76;103933.25;5050434;28;19938;-59
2021/12/18 09:59:13;;;;;;;;;;;;;;;9.22;74.86;103925.81;5045560;28;20003;-59
2021/12/18 10:01:40;;;;;;;;;;;;;;;9.23;75.10;103926.66;5051257;28;20299;-59
2021/12/18 10:04:22;;;;;;;;;;;;;;;9.22;74.82;103922.16;5050181;28;20007;-59
2021/12/18 10:06:47;;;;;;;;;;;;;;;9.21;74.95;103918.53;5051593;28;19917;-59
2021/12/18 10:09:28;;;;;;;;;;;;;;;9.21;75.28;103915.75;5052409;28;19924;-59
2021/12/18 10:11:54;;;;;;;;;;;;;;;9.21;74.72;103920.44;5051593;28;20319;-59
2021/12/18 10:14:31;;;;;;;;;;;;;;;9.21;75.03;103914.91;5051028;28;20394;-59
2021/12/18 10:16:56;;;;;;;;;;;;;;;9.21;75.05;103914.91;5041345;28;20007;-59
2021/12/18 10:19:24;;;;;;;;;;;;;;;9.21;75.01;103903.81;5047416;28;20031;-59
2021/12/18 10:22:00;;;;;;;;;;;;;;;9.21;74.89;103906.59;5044140;28;19931;-60
2021/12/18 10:24:25;;;;;;;;;;;;;;;9.19;75.12;103900.31;5042305;28;19921;-60
2021/12/18 10:26:51;;;;;;;;;;;;;;;9.19;74.88;103906.72;5048984;28;19921;-59
2021/12/18 10:29:23;;;;;;;;;;;;;;;9.21;74.80;103903.81;5049414;28;19921;-62
2021/12/18 10:31:49;;;;;;;;;;;;;;;9.21;75.04;103904.66;5050037;28;19975;-60
2021/12/18 10:34:14;;;;;;;;;;;;;;;9.23;75.43;103910.91;5041990;28;19921;-59
2021/12/18 10:36:41;;;;;;;;;;;;;;;9.23;75.12;103905.34;5044928;28;19968;-59
2021/12/18 10:39:07;;;;;;;;;;;;;;;9.25;74.90;103902.44;5045950;28;19927;-59
2021/12/18 10:41:34;;;;;;;;;;;;;;;9.24;75.04;103907.09;5047195;28;20432;-59
2021/12/18 10:44:07;;;;;;;;;;;;;;;9.25;75.09;103899.66;5051810;28;19925;-59
2021/12/18 10:46:34;;;;;;;;;;;;;;;9.25;75.19;103910.75;5044252;28;19928;-59
2021/12/18 10:49:00;;;;;;;;;;;;;;;9.25;74.71;103907.97;5052806;28;19960;-59
2021/12/18 10:51:27;;;;;;;;;;;;;;;9.21;74.84;103901.91;5055722;28;20403;-59
2021/12/18 10:53:57;;;;;;;;;;;;;;;9.21;75.37;103903.81;5053901;28;19925;-60
2021/12/18 10:56:52;;;;;;;;;;;;;;;9.20;74.86;103896.53;5051819;28;19928;-59
2021/12/18 10:59:25;;;;;;;;;;;;;;;9.19;75.13;103900.31;5040164;28;19928;-59
2021/12/18 11:01:54;;;;;;;;;;;;;;;9.16;75.07;103890.47;5055351;28;20051;-60
2021/12/18 11:04:22;;;;;;;;;;;;;;;9.18;74.81;103895.81;5050396;28;22347;-59
2021/12/18 11:06:47;;;;;;;;;;;;;;;9.19;74.88;103897.56;5049279;28;19921;-61
2021/12/18 11:09:14;;;;;;;;;;;;;;;9.18;74.89;103895.81;5051409;28;19920;-59
2021/12/18 11:14:15;;;;;;;;;;;;;;;9.20;74.63;103896.53;5048243;28;20269;-59
2021/12/18 11:16:44;;;;;;;;;;;;;;;9.19;75.06;103901.19;5051101;28;20367;-59
2021/12/18 11:19:13;;;;;;;;;;;;;;;9.21;74.83;103895.50;5048845;28;20015;-59
2021/12/18 11:21:43;;;;;;;;;;;;;;;9.22;74.83;103900.84;5049296;28;19964;-60
2021/12/18 11:24:09;;;;;;;;;;;;;;;9.20;74.71;103889.09;5049631;28;20043;-66
2021/12/18 11:26:43;;;;;;;;;;;;;;;9.21;74.72;103890.81;5053172;28;19929;-65
2021/12/18 11:29:11;;;;;;;;;;;;;;;9.20;74.90;103891.00;5051373;28;19960;-59
2021/12/18 11:31:37;;;;;;;;;;;;;;;9.20;75.14;103891.00;5051322;28;19921;-59
2021/12/18 11:34:02;;;;;;;;;;;;;;;9.18;74.82;103887.50;5051588;28;19921;-59
2021/12/18 11:36:28;;;;;;;;;;;;;;;9.18;74.80;103890.28;5049757;28;20670;-59
2021/12/18 11:38:56;;;;;;;;;;;;;;;9.18;75.18;103890.28;5051365;28;19986;-59
2021/12/18 11:41:21;;;;;;;;;;;;;;;9.17;75.01;103875.56;5049230;28;19920;-59
2021/12/18 11:43:47;;;;;;;;;;;;;;;9.19;75.17;103878.16;5050166;28;19929;-59
2021/12/18 11:46:26;;;;;;;;;;;;;;;9.18;74.83;103877.28;5051537;28;19921;-59
2021/12/18 11:48:56;;;;;;;;;;;;;;;9.19;74.92;103884.56;5053255;28;19921;-61
2021/12/18 11:51:21;;;;;;;;;;;;;;;9.20;75.01;103880.78;5041339;28;19929;-60
2021/12/18 11:53:47;;;;;;;;;;;;;;;9.21;74.87;103882.50;5047039;28;20011;-60
2021/12/18 11:56:12;;;;;;;;;;;;;;;9.22;75.24;103875.03;5049442;28;19928;-60
2021/12/18 11:58:45;;;;;;;;;;;;;;;9.20;74.72;103869.69;5047816;28;19921;-60
2021/12/18 12:01:16;;;;;;;;;;;;;;;9.19;74.90;103867.94;5049680;28;19932;-61
2021/12/18 12:03:43;;;;;;;;;;;;;;;9.19;75.09;103861.53;5052832;28;19927;-61
2021/12/18 12:06:30;;;;;;;;;;;;;;;9.18;74.89;103854.25;5044505;28;19954;-60
2021/12/18 12:09:15;;;;;;;;;;;;;;;9.17;74.97;103858.94;5051188;28;19956;-62
2021/12/18 12:11:49;;;;;;;;;;;;;;;9.17;74.82;103858.06;5045434;28;20004;-61
2021/12/18 12:14:19;;;;;;;;;;;;;;;9.17;74.91;103841.44;5042038;28;19967;-60
2021/12/18 12:16:44;;;;;;;;;;;;;;;9.18;75.30;103845.94;5038856;28;19925;-60
2021/12/18 12:19:13;;;;;;;;;;;;;;;9.17;75.11;103844.22;5038349;28;20000;-60
2021/12/18 12:21:46;;;;;;;;;;;;;;;9.16;75.11;103845.25;5038001;28;20384;-60
2021/12/18 12:24:12;;;;;;;;;;;;;;;9.16;74.79;103842.50;5045349;28;19967;-60
2021/12/18 12:26:40;;;;;;;;;;;;;;;9.14;75.18;103837.09;5044103;28;19928;-60
2021/12/18 12:29:06;;;;;;;;;;;;;;;9.13;74.91;103834.50;5044882;28;19920;-60
2021/12/18 12:31:35;;;;;;;;;;;;;;;9.12;75.15;103832.75;5048327;28;19931;-60
2021/12/18 12:34:19;;;;;;;;;;;;;;;9.12;74.72;103833.66;5044078;28;19940;-60
2021/12/18 12:36:45;;;;;;;;;;;;;;;9.13;75.04;103838.16;5045290;28;20347;-59
2021/12/18 12:39:11;;;;;;;;;;;;;;;9.13;75.29;103840.06;5042563;28;19924;-59
2021/12/18 12:41:38;;;;;;;;;;;;;;;9.13;75.16;103831.75;5053279;28;19921;-59
2021/12/18 12:44:11;;;;;;;;;;;;;;;9.13;75.27;103826.19;5048206;28;20307;-59
2021/12/18 12:46:36;;;;;;;;;;;;;;;9.11;74.89;103829.13;5046978;28;19925;-60
2021/12/18 12:49:01;;;;;;;;;;;;;;;9.13;74.89;103826.19;5053029;28;19927;-59
2021/12/18 12:51:47;;;;;;;;;;;;;;;9.10;74.94;103819.94;5045099;28;19925;-58
2021/12/18 12:54:32;;;;;;;;;;;;;;;9.07;74.75;103823.06;5046317;28;19920;-59
2021/12/18 12:57:16;;;;;;;;;;;;;;;9.07;74.82;103824.97;5045389;28;19921;-59
2021/12/18 12:59:42;;;;;;;;;;;;;;;9.03;74.55;103818.88;5050864;28;20277;-58
2021/12/18 13:02:08;;;;;;;;;;;;;;;9.02;75.07;103819.94;5049976;28;19921;-60
2021/12/18 13:04:33;;;;;;;;;;;;;;;9.02;74.85;103819.94;5052391;28;19920;-59
2021/12/18 13:07:13;;;;;;;;;;;;;;;9.03;74.76;103812.47;5050121;28;20336;-59
2021/12/18 13:09:46;;;;;;;;;;;;;;;9.03;74.64;103810.56;5052425;28;20340;-59
2021/12/18 13:12:11;;;;;;;;;;;;;;;9.03;74.63;103810.56;5052316;28;19921;-59
2021/12/18 13:14:40;;;;;;;;;;;;;;;9.00;74.79;103813.72;5050784;28;19996;-59
2021/12/18 13:17:28;;;;;;;;;;;;;;;9.01;74.92;103807.13;5051406;28;19917;-59
2021/12/18 13:19:54;;;;;;;;;;;;;;;9.00;74.60;103805.41;5043559;28;19921;-60
2021/12/18 13:22:26;;;;;;;;;;;;;;;9.00;74.58;103797.09;5050565;28;20390;-60
2021/12/18 13:25:02;;;;;;;;;;;;;;;9.00;74.86;103805.41;5051696;28;19921;-60
2021/12/18 13:27:28;;;;;;;;;;;;;;;9.00;74.94;103799.88;5046901;28;20368;-59